Hurst, TX (76053)

4:22 AM CST on December 22, 2014 (GMT -0600)
Hurst Bell Station | Change Station
CLOSE
Current Station
Personal Weather Station
Location: Hurst, TX
Elevation: 528 ft
Nearby Weather Stations

Elev 528 ft 32.81 °N, 97.15 °W | Updated 8 seconds ago

Partly Cloudy
Partly Cloudy
51.2 °F
Feels Like 51.2 °F
N
3.5
Wind Variable Wind from SW
Gusts 3.5 mph

Today
High -- | Low -- °F
--% Chance of Precip.
Yesterday
High -- | Low -- °F
Precip. -- in
7:27 AM 5:27 PM
New Moon, 0% visible
Pressure 29.60 in
Visibility 10.0 miles
Clouds Scattered Clouds 1700 ft
Dew Point 48 °F
Humidity 89%
Rainfall 0.00 in
Snow Depth Not available.
UV 0 out of 12
Pollen 10.30 out of 12
Air Quality Not available.
Flu Activity Not available.
METAR KDFW 220953Z 20017KT 10SM SCT017 11/08 A2961 RMK AO2 SLP024 T01110083 $

More Conditions Fewer Conditions

Pressure 29.60 in
Visibility 10.0 miles
Clouds Scattered Clouds 1700 ft
Dew Point 48 °F
Humidity 89%
Rainfall 0.00 in
Snow Depth Not available.
UV 0 out of 12
Pollen 10.30 out of 12
Air Quality Not available.
Flu Activity Not available.
METAR KDFW 220953Z 20017KT 10SM SCT017 11/08 A2961 RMK AO2 SLP024 T01110083 $

More Conditions Fewer Conditions

10-Day Weather Forecast

Almanac

Astronomy

Dec. 22, 2014 Rise Set
Actual Time
Civil Twilight
Nautical Twilight
Astronomical Twilight
Moon
Length of Visible Light
Length of Day
Tomorrow will be .
, % of the Moon is Illuminated

Today's Extremes

State Highs State Lows

Community

WunderPhotos

Upload Photos

1,779,583 photos uploaded!

WunderBlogs® & News

Nearby

Air Quality

  Air Quality AQ Index Pollutant
Not available.

Snow Depth

Station Depth Elevation

Earthquake Activity

City Distance Mag. Time & Date
Minimum magnitude displayed is 2.5.

Coastal Water Temperatures

Place Temperature

Nearby Weather Stations